createdAt,value
2022-10-17T00:00:43.790Z,12.05
2022-10-17T00:03:06.185Z,12.06
2022-10-17T00:05:28.619Z,12.06
2022-10-17T00:07:51.857Z,12.06
2022-10-17T00:10:14.269Z,12.02
2022-10-17T00:12:36.603Z,12.02
2022-10-17T00:14:59.015Z,11.96
2022-10-17T00:17:21.411Z,11.98
2022-10-17T00:19:43.771Z,11.97
2022-10-17T00:22:06.167Z,11.95
2022-10-17T00:24:30.670Z,11.94
2022-10-17T00:26:53.112Z,11.96
2022-10-17T00:29:15.489Z,11.96
2022-10-17T00:31:37.994Z,11.93
2022-10-17T00:34:00.412Z,11.81
2022-10-17T00:36:25.047Z,11.85
2022-10-17T00:38:50.142Z,11.87
2022-10-17T00:41:15.849Z,11.88
2022-10-17T00:44:29.016Z,11.87
2022-10-17T00:46:51.496Z,11.86
2022-10-17T00:49:13.906Z,11.80
2022-10-17T00:51:58.055Z,11.75
2022-10-17T00:54:25.554Z,11.71
2022-10-17T00:56:48.119Z,11.71
2022-10-17T00:59:11.583Z,11.59
2022-10-17T01:01:34.491Z,11.43
2022-10-17T01:03:56.850Z,11.41
2022-10-17T01:06:19.310Z,11.35
2022-10-17T01:08:41.769Z,11.23
2022-10-17T01:11:18.915Z,11.31
2022-10-17T01:14:07.333Z,11.30
2022-10-17T01:16:49.118Z,11.23
2022-10-17T01:19:51.898Z,11.20
2022-10-17T01:22:28.053Z,11.13
2022-10-17T01:25:05.490Z,11.09
2022-10-17T01:28:13.299Z,11.10
2022-10-17T01:31:09.940Z,11.12
2022-10-17T01:33:57.350Z,11.16
2022-10-17T01:36:57.578Z,11.21
2022-10-17T01:39:34.445Z,11.26
2022-10-17T01:42:25.056Z,11.27
2022-10-17T01:45:10.934Z,11.19
2022-10-17T01:47:33.796Z,11.19
2022-10-17T01:50:00.179Z,11.17
2022-10-17T01:52:26.945Z,11.14
2022-10-17T01:54:55.861Z,11.12
2022-10-17T01:57:31.847Z,11.10
2022-10-17T01:59:54.877Z,11.00
2022-10-17T02:02:17.301Z,11.01
2022-10-17T02:04:39.848Z,10.97
2022-10-17T02:07:12.556Z,10.98
2022-10-17T02:09:36.113Z,11.01
2022-10-17T02:12:26.394Z,10.99
2022-10-17T02:15:10.707Z,11.01
2022-10-17T02:17:53.024Z,11.04
2022-10-17T02:20:30.337Z,11.02
2022-10-17T02:26:40.688Z,10.97
2022-10-17T02:29:15.722Z,11.00
2022-10-17T02:31:49.797Z,10.98
2022-10-17T02:34:26.216Z,11.00
2022-10-17T02:36:55.901Z,10.93
2022-10-17T02:39:19.034Z,10.96
2022-10-17T02:41:41.536Z,11.00
2022-10-17T02:44:04.019Z,11.00
2022-10-17T02:46:26.377Z,11.03
2022-10-17T02:49:12.248Z,10.97
2022-10-17T02:52:25.516Z,11.01
2022-10-17T02:55:01.560Z,11.04
2022-10-17T02:57:43.587Z,11.03
2022-10-17T03:00:12.093Z,10.97
2022-10-17T03:02:47.755Z,10.98
2022-10-17T03:05:12.717Z,10.99
2022-10-17T03:07:35.137Z,11.05
2022-10-17T03:09:57.554Z,11.07
2022-10-17T03:12:19.975Z,10.99
2022-10-17T03:14:42.431Z,10.98
2022-10-17T03:17:04.758Z,10.98
2022-10-17T03:19:27.182Z,11.03
2022-10-17T03:21:49.960Z,11.03
2022-10-17T03:24:12.362Z,11.06
2022-10-17T03:26:34.751Z,11.05
2022-10-17T03:28:57.242Z,10.99
2022-10-17T03:31:19.670Z,10.99
2022-10-17T03:33:42.130Z,11.05
2022-10-17T03:36:09.346Z,11.07
2022-10-17T03:38:31.764Z,11.05
2022-10-17T03:40:57.284Z,11.07
2022-10-17T03:43:19.651Z,11.03
2022-10-17T03:45:42.033Z,10.98
2022-10-17T03:48:04.815Z,11.00
2022-10-17T03:50:27.200Z,10.95
2022-10-17T03:52:49.704Z,11.00
2022-10-17T03:55:12.064Z,11.04
2022-10-17T03:57:36.767Z,11.11
2022-10-17T03:59:59.202Z,11.14
2022-10-17T04:02:21.585Z,11.17
2022-10-17T04:04:43.984Z,11.17
2022-10-17T04:07:06.316Z,11.19
2022-10-17T04:09:28.767Z,11.14
2022-10-17T04:11:51.146Z,11.18
2022-10-17T04:14:14.457Z,11.22
2022-10-17T04:16:36.762Z,11.08
2022-10-17T04:18:59.838Z,11.16
2022-10-17T04:21:23.673Z,11.19
2022-10-17T04:23:46.084Z,11.15
2022-10-17T04:26:08.486Z,11.15
2022-10-17T04:28:31.232Z,11.18
2022-10-17T04:31:01.773Z,11.15
2022-10-17T04:33:24.157Z,11.17
2022-10-17T04:35:26.412Z,11.18
2022-10-17T04:37:29.681Z,11.23
2022-10-17T04:39:31.908Z,11.23
2022-10-17T04:41:34.223Z,11.20
2022-10-17T04:43:37.347Z,11.20
2022-10-17T04:45:39.583Z,11.21
2022-10-17T04:47:41.739Z,11.24
2022-10-17T04:49:44.011Z,11.22
2022-10-17T04:51:46.245Z,11.28
2022-10-17T04:53:48.447Z,11.28
2022-10-17T04:55:50.708Z,11.26
2022-10-17T04:57:52.892Z,11.28
2022-10-17T04:59:55.182Z,11.24
2022-10-17T05:01:57.394Z,11.26
2022-10-17T05:03:59.670Z,11.28
2022-10-17T05:06:14.177Z,11.26
2022-10-17T05:08:16.328Z,11.27
2022-10-17T05:10:18.585Z,11.28
2022-10-17T05:12:20.776Z,11.22
2022-10-17T05:14:23.005Z,11.28
2022-10-17T05:16:25.700Z,11.30
2022-10-17T05:18:28.811Z,11.28
2022-10-17T05:20:31.108Z,11.30
2022-10-17T05:22:36.038Z,11.33
2022-10-17T05:24:39.318Z,11.33
2022-10-17T05:26:41.496Z,11.27
2022-10-17T05:28:43.739Z,11.29
2022-10-17T05:30:45.930Z,11.27
2022-10-17T05:32:48.158Z,11.31
2022-10-17T05:34:50.362Z,11.28
2022-10-17T05:36:52.544Z,11.28
2022-10-17T05:38:54.727Z,11.31
2022-10-17T05:41:03.621Z,11.36
2022-10-17T05:43:06.062Z,11.34
2022-10-17T05:45:08.773Z,11.39
2022-10-17T05:47:10.897Z,11.38
2022-10-17T05:49:19.748Z,11.38
2022-10-17T05:51:34.380Z,11.37
2022-10-17T05:53:38.243Z,11.36
2022-10-17T05:55:40.411Z,11.40
2022-10-17T05:57:42.593Z,11.42
2022-10-17T05:59:44.774Z,11.47
2022-10-17T06:01:47.008Z,11.47
2022-10-17T06:03:49.240Z,11.53
2022-10-17T06:05:52.497Z,11.53
2022-10-17T06:07:58.159Z,11.56
2022-10-17T06:10:03.610Z,11.59
2022-10-17T06:12:06.277Z,11.66
2022-10-17T06:14:08.705Z,11.68
2022-10-17T06:16:10.885Z,11.75
2022-10-17T06:18:13.036Z,11.82
2022-10-17T06:20:15.281Z,11.88
2022-10-17T06:22:17.544Z,11.93
2022-10-17T06:24:19.878Z,11.98
2022-10-17T06:26:22.180Z,12.03
2022-10-17T06:28:24.421Z,12.07
2022-10-17T06:30:26.677Z,12.09
2022-10-17T06:32:29.076Z,12.14
2022-10-17T06:34:31.533Z,12.20
2022-10-17T06:36:33.706Z,12.26
2022-10-17T06:38:36.160Z,12.30
2022-10-17T06:40:38.375Z,12.32
2022-10-17T06:42:41.209Z,12.37
2022-10-17T06:44:43.373Z,12.45
2022-10-17T06:46:45.563Z,12.48
2022-10-17T06:48:47.727Z,12.55
2022-10-17T06:50:49.925Z,12.61
2022-10-17T06:52:52.373Z,12.66
2022-10-17T06:54:54.684Z,12.71
2022-10-17T06:56:56.928Z,12.74
2022-10-17T06:58:59.211Z,12.77
2022-10-17T07:01:04.461Z,12.83
2022-10-17T07:03:06.762Z,12.86
2022-10-17T07:05:09.108Z,12.90
2022-10-17T07:07:11.270Z,12.98
2022-10-17T07:09:13.505Z,13.07
2022-10-17T07:11:18.423Z,13.13
2022-10-17T07:13:20.879Z,13.17
2022-10-17T07:15:23.079Z,13.17
2022-10-17T07:17:25.512Z,13.27
2022-10-17T07:19:27.698Z,13.28
2022-10-17T07:21:30.060Z,13.34
2022-10-17T07:23:34.360Z,13.39
2022-10-17T07:25:40.026Z,13.42
2022-10-17T07:27:42.564Z,13.48
2022-10-17T07:29:44.727Z,13.50
2022-10-17T07:31:48.889Z,13.50
2022-10-17T07:33:51.321Z,13.58
2022-10-17T07:35:53.619Z,13.61
2022-10-17T07:37:55.811Z,13.70
2022-10-17T07:39:58.136Z,13.81
2022-10-17T07:42:00.346Z,13.86
2022-10-17T07:44:02.559Z,13.92
2022-10-17T07:46:05.860Z,14.02
2022-10-17T07:48:08.089Z,14.11
2022-10-17T07:50:10.509Z,14.22
2022-10-17T07:52:13.758Z,14.32
2022-10-17T07:54:15.936Z,14.41
2022-10-17T07:56:18.230Z,14.46
2022-10-17T07:58:20.473Z,14.58
2022-10-17T08:00:22.693Z,14.64
2022-10-17T08:02:26.377Z,14.74
2022-10-17T08:04:28.767Z,14.76
2022-10-17T08:06:32.201Z,14.89
2022-10-17T08:08:34.610Z,15.01
2022-10-17T08:10:37.302Z,15.14
2022-10-17T08:12:39.805Z,15.23
2022-10-17T08:14:42.938Z,15.40
2022-10-17T08:16:45.552Z,15.56
2022-10-17T08:18:47.877Z,15.66
2022-10-17T08:20:50.410Z,15.84
2022-10-17T08:22:54.503Z,16.02
2022-10-17T08:24:56.706Z,16.16
2022-10-17T08:27:00.665Z,16.35
2022-10-17T08:29:03.038Z,16.52
2022-10-17T08:31:07.861Z,16.60
2022-10-17T08:33:10.408Z,16.65
2022-10-17T08:35:14.860Z,16.68
2022-10-17T08:37:20.256Z,16.79
2022-10-17T08:39:22.617Z,16.87
2022-10-17T08:41:52.445Z,17.00
2022-10-17T08:44:25.926Z,17.32
2022-10-17T08:46:34.105Z,17.64
2022-10-17T08:48:46.410Z,17.84
2022-10-17T08:51:21.448Z,18.01
2022-10-17T08:53:40.388Z,18.23
2022-10-17T08:55:50.804Z,18.41
2022-10-17T08:57:52.987Z,18.56
2022-10-17T08:59:55.396Z,18.74
2022-10-17T09:02:03.006Z,18.96
2022-10-17T09:04:33.754Z,19.18
2022-10-17T09:06:44.495Z,19.47
2022-10-17T09:09:04.934Z,19.75
2022-10-17T09:11:43.294Z,19.97
2022-10-17T09:14:22.304Z,20.23
2022-10-17T09:17:04.448Z,20.45
2022-10-17T09:19:51.583Z,20.62
2022-10-17T09:22:19.882Z,20.58
2022-10-17T09:24:50.742Z,20.73
2022-10-17T09:26:53.034Z,20.84
2022-10-17T09:28:59.443Z,20.86
2022-10-17T09:31:22.064Z,21.19
2022-10-17T09:33:55.652Z,21.41
2022-10-17T09:35:57.914Z,21.58
2022-10-17T09:38:00.055Z,21.65
2022-10-17T09:40:25.486Z,21.57
2022-10-17T09:42:48.255Z,21.83
2022-10-17T09:45:26.943Z,22.11
2022-10-17T09:48:47.823Z,22.33
2022-10-17T09:51:21.749Z,22.61
2022-10-17T09:53:56.663Z,22.61
2022-10-17T09:56:19.731Z,22.80
2022-10-17T09:58:49.062Z,22.85
2022-10-17T10:01:22.953Z,23.08
2022-10-17T10:03:46.630Z,23.23
2022-10-17T10:06:20.031Z,23.39
2022-10-17T10:09:22.741Z,23.35
2022-10-17T10:11:51.576Z,23.15
2022-10-17T10:14:21.829Z,23.24
2022-10-17T10:16:44.329Z,23.43
2022-10-17T10:19:30.448Z,23.74
2022-10-17T10:21:58.844Z,23.88
2022-10-17T10:24:21.970Z,24.19
2022-10-17T10:26:50.732Z,24.66
2022-10-17T10:29:37.132Z,24.94
2022-10-17T10:32:21.781Z,25.06
2022-10-17T10:34:54.926Z,25.48
2022-10-17T10:37:26.500Z,25.60
2022-10-17T10:39:53.736Z,25.28
2022-10-17T10:42:32.370Z,25.72
2022-10-17T10:44:57.141Z,25.48
2022-10-17T10:47:28.964Z,25.83
2022-10-17T10:49:53.069Z,25.91
2022-10-17T10:52:44.060Z,26.24
2022-10-17T10:55:47.869Z,26.32
2022-10-17T10:58:45.699Z,26.75
2022-10-17T11:01:34.541Z,26.67
2022-10-17T11:04:32.815Z,27.03
2022-10-17T11:07:06.879Z,27.16
2022-10-17T11:10:00.806Z,27.42
2022-10-17T11:12:46.398Z,27.22
2022-10-17T11:15:22.352Z,27.40
2022-10-17T11:18:07.833Z,27.20
2022-10-17T11:20:51.950Z,26.92
2022-10-17T11:23:21.741Z,27.10
2022-10-17T11:25:43.804Z,26.57
2022-10-17T11:28:14.541Z,26.73
2022-10-17T11:30:52.859Z,26.56
2022-10-17T11:33:29.164Z,26.57
2022-10-17T11:35:53.188Z,26.44
2022-10-17T11:38:36.672Z,26.42
2022-10-17T11:40:59.909Z,26.23
2022-10-17T11:43:37.085Z,26.17
2022-10-17T11:46:05.411Z,26.20
2022-10-17T11:48:39.686Z,26.54
2022-10-17T11:54:15.104Z,26.38
2022-10-17T11:56:45.805Z,26.48
2022-10-17T11:59:45.250Z,26.81
2022-10-17T12:02:18.259Z,26.78
2022-10-17T12:05:21.234Z,26.85
2022-10-17T12:08:31.216Z,26.77
2022-10-17T12:11:15.364Z,27.10
2022-10-17T12:13:50.061Z,27.27
2022-10-17T12:15:52.154Z,27.32
2022-10-17T12:18:03.544Z,27.50
2022-10-17T12:20:38.026Z,27.66
2022-10-17T12:22:49.594Z,27.51
2022-10-17T12:25:01.775Z,27.44
2022-10-17T12:27:33.562Z,27.48
2022-10-17T12:29:35.590Z,27.40
2022-10-17T12:31:37.572Z,27.26
2022-10-17T12:33:49.042Z,27.04
2022-10-17T12:35:51.714Z,27.02
2022-10-17T12:37:57.336Z,26.76
2022-10-17T12:40:01.221Z,26.66
2022-10-17T12:42:03.489Z,26.57
2022-10-17T12:44:14.445Z,26.53
2022-10-17T12:46:54.502Z,26.13
2022-10-17T12:49:01.508Z,26.22
2022-10-17T12:51:36.509Z,25.98
2022-10-17T12:53:56.990Z,25.68
2022-10-17T12:56:07.957Z,25.58
2022-10-17T12:58:14.508Z,25.61
2022-10-17T13:00:37.169Z,25.54
2022-10-17T13:02:39.308Z,25.38
2022-10-17T13:04:41.317Z,25.28
2022-10-17T13:06:48.662Z,25.14
2022-10-17T13:09:04.226Z,24.93
2022-10-17T13:11:07.620Z,25.03
2022-10-17T13:13:48.742Z,25.10
2022-10-17T13:15:53.703Z,25.22
2022-10-17T13:17:59.435Z,25.40
2022-10-17T13:20:01.866Z,25.59
2022-10-17T13:22:07.099Z,25.81
2022-10-17T13:24:31.277Z,25.87
2022-10-17T13:26:33.376Z,25.93
2022-10-17T13:28:39.151Z,26.02
2022-10-17T13:30:47.853Z,25.98
2022-10-17T13:32:51.483Z,26.20
2022-10-17T13:35:59.370Z,26.26
2022-10-17T13:38:03.297Z,26.35
2022-10-17T13:40:30.826Z,26.12
2022-10-17T13:42:41.109Z,26.18
2022-10-17T13:44:43.585Z,26.02
2022-10-17T13:46:45.870Z,25.96
2022-10-17T13:48:49.544Z,25.99
2022-10-17T13:51:03.008Z,25.79
2022-10-17T13:53:19.609Z,25.65
2022-10-17T13:55:22.449Z,25.43
2022-10-17T13:57:31.881Z,25.13
2022-10-17T13:59:41.321Z,25.10
2022-10-17T14:01:43.447Z,25.14
2022-10-17T14:03:48.954Z,25.16
2022-10-17T14:06:19.238Z,25.13
2022-10-17T14:08:51.630Z,24.83
2022-10-17T14:11:18.467Z,24.74
2022-10-17T14:13:40.813Z,24.50
2022-10-17T14:16:03.850Z,24.49
2022-10-17T14:18:35.048Z,24.54
2022-10-17T14:23:44.826Z,24.74
2022-10-17T14:26:23.212Z,24.65
2022-10-17T14:29:07.760Z,24.69
2022-10-17T14:31:35.254Z,24.69
2022-10-17T14:33:57.714Z,24.64
2022-10-17T14:36:21.163Z,24.56
2022-10-17T14:38:23.315Z,24.54
2022-10-17T14:41:04.811Z,24.35
2022-10-17T14:43:24.216Z,24.17
2022-10-17T14:45:37.647Z,24.07
2022-10-17T14:47:43.599Z,24.02
2022-10-17T14:50:28.678Z,23.92
2022-10-17T14:53:25.463Z,23.85
2022-10-17T14:55:59.770Z,23.72
2022-10-17T14:58:32.811Z,23.61
2022-10-17T15:00:59.765Z,23.52
2022-10-17T15:03:22.284Z,23.38
2022-10-17T15:05:44.961Z,23.32
2022-10-17T15:08:18.364Z,23.23
2022-10-17T15:10:43.758Z,23.17
2022-10-17T15:15:51.381Z,22.96
2022-10-17T15:18:14.781Z,23.00
2022-10-17T15:20:37.342Z,22.95
2022-10-17T15:23:01.613Z,22.84
2022-10-17T15:25:24.620Z,22.79
2022-10-17T15:27:46.998Z,22.74
2022-10-17T15:30:36.616Z,22.53
2022-10-17T15:32:59.420Z,22.41
2022-10-17T15:35:22.092Z,22.30
2022-10-17T15:37:46.719Z,22.18
2022-10-17T15:40:24.595Z,22.00
2022-10-17T15:42:47.086Z,21.83
2022-10-17T15:45:12.302Z,21.73
2022-10-17T15:47:34.726Z,21.63
2022-10-17T15:49:57.454Z,21.53
2022-10-17T15:52:19.832Z,21.45
2022-10-17T15:54:42.151Z,21.34
2022-10-17T15:57:04.514Z,21.28
2022-10-17T15:59:31.582Z,21.22
2022-10-17T16:01:53.911Z,21.12
2022-10-17T16:04:16.306Z,21.09
2022-10-17T16:06:39.155Z,20.99
2022-10-17T16:09:01.503Z,20.94
2022-10-17T16:11:38.227Z,20.86
2022-10-17T16:14:03.037Z,20.75
2022-10-17T16:16:25.400Z,20.69
2022-10-17T16:18:47.958Z,20.64
2022-10-17T16:21:15.642Z,20.55
2022-10-17T16:23:37.992Z,20.52
2022-10-17T16:26:00.276Z,20.47
2022-10-17T16:28:22.634Z,20.39
2022-10-17T16:30:46.348Z,20.38
2022-10-17T16:33:10.436Z,20.33
2022-10-17T16:35:36.513Z,20.27
2022-10-17T16:38:00.014Z,20.23
2022-10-17T16:40:22.371Z,20.18
2022-10-17T16:42:44.979Z,20.13
2022-10-17T16:45:08.113Z,20.10
2022-10-17T16:47:30.387Z,20.03
2022-10-17T16:49:52.735Z,20.00
2022-10-17T16:52:15.686Z,19.97
2022-10-17T16:54:38.128Z,19.93
2022-10-17T16:57:01.089Z,19.90
2022-10-17T16:59:24.325Z,19.84
2022-10-17T17:01:46.575Z,19.77
2022-10-17T17:04:09.498Z,19.73
2022-10-17T17:06:31.978Z,19.72
2022-10-17T17:08:55.034Z,19.66
2022-10-17T17:11:18.828Z,19.64
2022-10-17T17:13:41.470Z,19.58
2022-10-17T17:16:24.023Z,19.53
2022-10-17T17:18:46.870Z,19.50
2022-10-17T17:21:10.489Z,19.44
2022-10-17T17:23:38.014Z,19.45
2022-10-17T17:26:05.584Z,19.42
2022-10-17T17:28:28.393Z,19.40
2022-10-17T17:30:50.758Z,19.34
2022-10-17T17:33:13.102Z,19.32
2022-10-17T17:35:35.712Z,19.27
2022-10-17T17:37:58.125Z,19.29
2022-10-17T17:40:20.506Z,19.19
2022-10-17T17:42:43.082Z,19.21
2022-10-17T17:44:45.283Z,19.21
2022-10-17T17:46:48.252Z,19.17
2022-10-17T17:48:51.286Z,19.17
2022-10-17T17:50:53.419Z,19.13
2022-10-17T17:52:55.538Z,19.10
2022-10-17T17:54:57.678Z,19.09
2022-10-17T17:56:59.885Z,19.03
2022-10-17T17:59:02.589Z,19.00
2022-10-17T18:01:14.319Z,18.95
2022-10-17T18:03:17.247Z,18.93
2022-10-17T18:05:40.178Z,18.88
2022-10-17T18:08:00.717Z,18.86
2022-10-17T18:10:23.035Z,18.80
2022-10-17T18:12:45.430Z,18.78
2022-10-17T18:15:08.234Z,18.73
2022-10-17T18:17:30.612Z,18.71
2022-10-17T18:19:52.926Z,18.63
2022-10-17T18:22:15.277Z,18.62
2022-10-17T18:24:37.611Z,18.59
2022-10-17T18:27:00.082Z,18.54
2022-10-17T18:29:22.503Z,18.53
2022-10-17T18:31:44.956Z,18.51
2022-10-17T18:34:07.332Z,18.47
2022-10-17T18:36:30.548Z,18.46
2022-10-17T18:38:53.381Z,18.41
2022-10-17T18:41:18.356Z,18.37
2022-10-17T18:43:42.688Z,18.33
2022-10-17T18:46:15.635Z,18.35
2022-10-17T18:48:40.370Z,18.34
2022-10-17T18:51:04.125Z,18.31
2022-10-17T18:53:26.504Z,18.32
2022-10-17T18:55:50.761Z,18.29
2022-10-17T18:58:13.129Z,18.24
2022-10-17T19:00:35.460Z,18.21
2022-10-17T19:02:57.816Z,18.16
2022-10-17T19:05:20.160Z,18.13
2022-10-17T19:07:42.527Z,18.13
2022-10-17T19:10:05.165Z,18.11
2022-10-17T19:12:27.620Z,18.11
2022-10-17T19:14:50.941Z,18.04
2022-10-17T19:17:13.299Z,18.02
2022-10-17T19:19:36.064Z,18.01
2022-10-17T19:22:00.122Z,18.01
2022-10-17T19:24:27.053Z,18.04
2022-10-17T19:26:50.482Z,18.01
2022-10-17T19:29:17.054Z,17.99
2022-10-17T19:31:39.417Z,17.95
2022-10-17T19:34:01.836Z,17.93
2022-10-17T19:36:30.759Z,17.96
2022-10-17T19:38:56.231Z,17.91
2022-10-17T19:41:18.679Z,17.88
2022-10-17T19:43:42.133Z,17.89
2022-10-17T19:46:07.967Z,17.82
2022-10-17T19:48:32.808Z,17.78
2022-10-17T19:50:55.143Z,17.77
2022-10-17T19:53:17.841Z,17.75
2022-10-17T19:55:40.183Z,17.72
2022-10-17T19:58:03.011Z,17.68
2022-10-17T20:00:25.357Z,17.67
2022-10-17T20:02:47.697Z,17.64
2022-10-17T20:05:18.644Z,17.63
2022-10-17T20:07:41.892Z,17.59
2022-10-17T20:10:05.200Z,17.54
2022-10-17T20:12:27.608Z,17.49
2022-10-17T20:14:50.069Z,17.47
2022-10-17T20:17:12.420Z,17.46
2022-10-17T20:19:34.822Z,17.43
2022-10-17T20:21:57.186Z,17.42
2022-10-17T20:24:19.542Z,17.42
2022-10-17T20:26:42.061Z,17.39
2022-10-17T20:29:08.757Z,17.39
2022-10-17T20:31:31.349Z,17.39
2022-10-17T20:33:57.831Z,17.37
2022-10-17T20:36:23.359Z,17.35
2022-10-17T20:38:45.723Z,17.33
2022-10-17T20:41:09.553Z,17.31
2022-10-17T20:43:32.098Z,17.25
2022-10-17T20:46:03.493Z,17.26
2022-10-17T20:48:31.036Z,17.23
2022-10-17T20:50:53.676Z,17.23
2022-10-17T20:56:07.858Z,17.17
2022-10-17T20:58:30.193Z,17.14
2022-10-17T21:00:52.584Z,17.11
2022-10-17T21:03:15.002Z,17.14
2022-10-17T21:05:40.962Z,17.17
2022-10-17T21:08:03.392Z,17.13
2022-10-17T21:10:35.332Z,17.12
2022-10-17T21:12:59.663Z,17.10
2022-10-17T21:15:22.447Z,17.10
2022-10-17T21:17:44.809Z,17.08
2022-10-17T21:20:07.911Z,17.10
2022-10-17T21:22:30.569Z,17.08
2022-10-17T21:24:53.084Z,17.04
2022-10-17T21:27:17.935Z,17.03
2022-10-17T21:29:40.259Z,17.02
2022-10-17T21:32:02.601Z,17.02
2022-10-17T21:34:25.245Z,16.99
2022-10-17T21:36:48.241Z,17.01
2022-10-17T21:39:12.065Z,16.97
2022-10-17T21:41:34.437Z,16.93
2022-10-17T21:44:02.420Z,16.96
2022-10-17T21:46:24.809Z,16.98
2022-10-17T21:48:47.590Z,16.95
2022-10-17T21:51:14.163Z,16.93
2022-10-17T21:53:36.716Z,16.91
2022-10-17T21:56:00.856Z,16.90
2022-10-17T21:58:23.211Z,16.89
2022-10-17T22:00:45.611Z,16.88
2022-10-17T22:03:09.570Z,16.88
2022-10-17T22:05:31.908Z,16.89
2022-10-17T22:07:54.270Z,16.84
2022-10-17T22:10:16.626Z,16.87
2022-10-17T22:12:38.962Z,16.88
2022-10-17T22:15:01.588Z,16.87
2022-10-17T22:17:24.021Z,16.86
2022-10-17T22:19:46.364Z,16.80
2022-10-17T22:22:08.948Z,16.77
2022-10-17T22:24:31.271Z,16.77
2022-10-17T22:26:53.634Z,16.77
2022-10-17T22:29:16.076Z,16.74
2022-10-17T22:31:38.585Z,16.74
2022-10-17T22:34:00.956Z,16.68
2022-10-17T22:36:23.476Z,16.68
2022-10-17T22:38:45.859Z,16.67
2022-10-17T22:41:08.426Z,16.65
2022-10-17T22:43:30.985Z,16.61
2022-10-17T22:45:54.797Z,16.60
2022-10-17T22:48:17.191Z,16.56
2022-10-17T22:50:41.821Z,16.55
2022-10-17T22:53:04.139Z,16.47
2022-10-17T22:55:26.717Z,16.45
2022-10-17T22:57:49.062Z,16.41
2022-10-17T23:00:12.207Z,16.39
2022-10-17T23:02:34.581Z,16.36
2022-10-17T23:04:56.917Z,16.36
2022-10-17T23:07:19.315Z,16.31
2022-10-17T23:09:41.861Z,16.28
2022-10-17T23:12:04.792Z,16.23
2022-10-17T23:14:27.110Z,16.22
2022-10-17T23:16:49.441Z,16.19
2022-10-17T23:19:11.804Z,16.17
2022-10-17T23:21:34.182Z,16.16
2022-10-17T23:23:56.558Z,16.09
2022-10-17T23:26:18.938Z,16.08
2022-10-17T23:28:42.255Z,16.04
2022-10-17T23:31:16.824Z,16.07
2022-10-17T23:33:41.365Z,16.06
2022-10-17T23:36:05.526Z,16.04
2022-10-17T23:38:27.876Z,16.01
2022-10-17T23:40:50.288Z,15.98
2022-10-17T23:43:12.773Z,15.96
2022-10-17T23:45:37.235Z,15.89
2022-10-17T23:47:59.781Z,15.89
2022-10-17T23:50:22.163Z,15.89
2022-10-17T23:52:44.604Z,15.84
2022-10-17T23:55:08.301Z,15.83
2022-10-17T23:57:30.883Z,15.81
2022-10-17T23:59:53.547Z,15.81
